sensor_id;sensor_type;location;lat;lon;timestamp;pressure;altitude;pressure_sealevel;temperature;humidity
12636;BME280;6383;50.830;7.210;2023-04-27T00:02:26;101128.06;;;12.53;48.81
12636;BME280;6383;50.830;7.210;2023-04-27T00:04:55;101127.56;;;12.51;48.90
12636;BME280;6383;50.830;7.210;2023-04-27T00:07:24;101123.19;;;12.50;49.38
12636;BME280;6383;50.830;7.210;2023-04-27T00:09:53;101124.22;;;12.54;49.14
12636;BME280;6383;50.830;7.210;2023-04-27T00:12:22;101134.03;;;12.55;49.20
12636;BME280;6383;50.830;7.210;2023-04-27T00:14:53;101133.53;;;12.53;48.82
12636;BME280;6383;50.830;7.210;2023-04-27T00:17:22;101133.53;;;12.53;49.20
12636;BME280;6383;50.830;7.210;2023-04-27T00:19:51;101131.38;;;12.50;49.17
12636;BME280;6383;50.830;7.210;2023-04-27T00:22:20;101130.38;;;12.46;49.81
12636;BME280;6383;50.830;7.210;2023-04-27T00:24:49;101134.31;;;12.40;50.22
12636;BME280;6383;50.830;7.210;2023-04-27T00:27:18;101135.41;;;12.39;50.53
12636;BME280;6383;50.830;7.210;2023-04-27T00:29:47;101135.19;;;12.35;49.65
12636;BME280;6383;50.830;7.210;2023-04-27T00:32:17;101135.78;;;12.32;50.47
12636;BME280;6383;50.830;7.210;2023-04-27T00:34:47;101135.28;;;12.30;50.79
12636;BME280;6383;50.830;7.210;2023-04-27T00:37:16;101140.44;;;12.31;50.85
12636;BME280;6383;50.830;7.210;2023-04-27T00:39:45;101141.22;;;12.32;50.80
12636;BME280;6383;50.830;7.210;2023-04-27T00:42:14;101148.94;;;12.30;51.17
12636;BME280;6383;50.830;7.210;2023-04-27T00:44:46;101143.19;;;12.31;50.49
12636;BME280;6383;50.830;7.210;2023-04-27T00:47:15;101136.59;;;12.32;50.50
12636;BME280;6383;50.830;7.210;2023-04-27T00:49:46;101137.22;;;12.29;50.04
12636;BME280;6383;50.830;7.210;2023-04-27T00:52:15;101139.13;;;12.29;50.45
12636;BME280;6383;50.830;7.210;2023-04-27T00:54:45;101139.94;;;12.29;50.44
12636;BME280;6383;50.830;7.210;2023-04-27T00:57:16;101140.44;;;12.31;49.59
12636;BME280;6383;50.830;7.210;2023-04-27T00:59:45;101145.59;;;12.33;49.87
12636;BME280;6383;50.830;7.210;2023-04-27T01:02:15;101145.59;;;12.33;50.34
12636;BME280;6383;50.830;7.210;2023-04-27T01:04:46;101142.84;;;12.33;49.55
12636;BME280;6383;50.830;7.210;2023-04-27T01:07:17;101151.03;;;12.33;48.77
12636;BME280;6383;50.830;7.210;2023-04-27T01:09:46;101141.75;;;12.34;49.61
12636;BME280;6383;50.830;7.210;2023-04-27T01:12:15;101137.41;;;12.33;48.55
12636;BME280;6383;50.830;7.210;2023-04-27T01:14:44;101139.03;;;12.34;48.80
12636;BME280;6383;50.830;7.210;2023-04-27T01:17:13;101139.53;;;12.36;48.15
12636;BME280;6383;50.830;7.210;2023-04-27T01:19:42;101137.31;;;12.38;48.24
12636;BME280;6383;50.830;7.210;2023-04-27T01:22:13;101139.75;;;12.40;47.70
12636;BME280;6383;50.830;7.210;2023-04-27T01:24:44;101135.94;;;12.41;48.20
12636;BME280;6383;50.830;7.210;2023-04-27T01:27:13;101143.31;;;12.40;47.42
12636;BME280;6383;50.830;7.210;2023-04-27T01:29:42;101133.50;;;12.39;47.82
12636;BME280;6383;50.830;7.210;2023-04-27T01:32:11;101130.47;;;12.41;47.59
12636;BME280;6383;50.830;7.210;2023-04-27T01:34:41;101131.56;;;12.40;47.87
12636;BME280;6383;50.830;7.210;2023-04-27T01:37:10;101139.75;;;12.40;47.35
12636;BME280;6383;50.830;7.210;2023-04-27T01:39:38;101143.59;;;12.39;47.37
12636;BME280;6383;50.830;7.210;2023-04-27T01:42:07;101146.84;;;12.41;46.91
12636;BME280;6383;50.830;7.210;2023-04-27T01:44:36;101142.19;;;12.41;47.38
12636;BME280;6383;50.830;7.210;2023-04-27T01:47:05;101134.31;;;12.40;47.62
12636;BME280;6383;50.830;7.210;2023-04-27T01:49:34;101130.25;;;12.37;46.95
12636;BME280;6383;50.830;7.210;2023-04-27T01:52:03;101135.94;;;12.41;47.04
12636;BME280;6383;50.830;7.210;2023-04-27T01:54:32;101133.19;;;12.41;47.99
12636;BME280;6383;50.830;7.210;2023-04-27T01:57:01;101144.41;;;12.39;47.67
12636;BME280;6383;50.830;7.210;2023-04-27T01:59:32;101150.97;;;12.38;47.67
12636;BME280;6383;50.830;7.210;2023-04-27T02:02:01;101149.34;;;12.37;46.78
12636;BME280;6383;50.830;7.210;2023-04-27T02:04:30;101154.00;;;12.36;46.67
12636;BME280;6383;50.830;7.210;2023-04-27T02:06:59;101156.13;;;12.40;46.78
12636;BME280;6383;50.830;7.210;2023-04-27T02:09:28;101147.94;;;12.40;46.94
12636;BME280;6383;50.830;7.210;2023-04-27T02:11:57;101152.06;;;12.37;47.07
12636;BME280;6383;50.830;7.210;2023-04-27T02:14:27;101151.56;;;12.35;48.01
12636;BME280;6383;50.830;7.210;2023-04-27T02:16:57;101147.81;;;12.31;49.29
12636;BME280;6383;50.830;7.210;2023-04-27T02:19:26;101143.53;;;12.25;49.74
12636;BME280;6383;50.830;7.210;2023-04-27T02:21:55;101149.88;;;12.20;49.84
12636;BME280;6383;50.830;7.210;2023-04-27T02:24:25;101155.94;;;12.17;50.02
12636;BME280;6383;50.830;7.210;2023-04-27T02:26:54;101149.19;;;12.15;51.02
12636;BME280;6383;50.830;7.210;2023-04-27T02:29:23;101154.41;;;12.11;50.72
12636;BME280;6383;50.830;7.210;2023-04-27T02:31:53;101146.28;;;12.06;49.78
12636;BME280;6383;50.830;7.210;2023-04-27T02:34:23;101145.75;;;12.04;49.44
12636;BME280;6383;50.830;7.210;2023-04-27T02:36:52;101146.06;;;12.02;49.59
12636;BME280;6383;50.830;7.210;2023-04-27T02:39:21;101151.03;;;12.00;49.13
12636;BME280;6383;50.830;7.210;2023-04-27T02:41:51;101148.38;;;11.95;49.20
12636;BME280;6383;50.830;7.210;2023-04-27T02:44:20;101157.41;;;11.91;49.18
12636;BME280;6383;50.830;7.210;2023-04-27T02:46:49;101153.06;;;11.90;49.41
12636;BME280;6383;50.830;7.210;2023-04-27T02:49:18;101159.91;;;11.87;50.48
12636;BME280;6383;50.830;7.210;2023-04-27T02:51:49;101156.19;;;11.83;50.92
12636;BME280;6383;50.830;7.210;2023-04-27T02:54:18;101151.81;;;11.82;51.13
12636;BME280;6383;50.830;7.210;2023-04-27T02:56:47;101146.66;;;11.81;51.13
12636;BME280;6383;50.830;7.210;2023-04-27T02:59:16;101145.84;;;11.80;50.92
12636;BME280;6383;50.830;7.210;2023-04-27T03:01:45;101135.53;;;11.77;49.82
12636;BME280;6383;50.830;7.210;2023-04-27T03:04:14;101135.22;;;11.79;50.10
12636;BME280;6383;50.830;7.210;2023-04-27T03:06:44;101135.75;;;11.81;49.69
12636;BME280;6383;50.830;7.210;2023-04-27T03:09:15;101135.47;;;11.82;49.92
12636;BME280;6383;50.830;7.210;2023-04-27T03:11:44;101130.81;;;11.83;49.72
12636;BME280;6383;50.830;7.210;2023-04-27T03:17:36;101129.13;;;11.87;49.37
12636;BME280;6383;50.830;7.210;2023-04-27T03:20:06;101128.81;;;11.88;49.45
12636;BME280;6383;50.830;7.210;2023-04-27T03:22:36;101136.69;;;11.90;48.74
12636;BME280;6383;50.830;7.210;2023-04-27T03:25:07;101138.31;;;11.91;48.30
12636;BME280;6383;50.830;7.210;2023-04-27T03:27:36;101134.50;;;11.92;48.43
12636;BME280;6383;50.830;7.210;2023-04-27T03:30:06;101136.41;;;11.91;48.38
12636;BME280;6383;50.830;7.210;2023-04-27T03:32:36;101141.56;;;11.93;48.77
12636;BME280;6383;50.830;7.210;2023-04-27T03:35:06;101135.31;;;11.92;48.42
12636;BME280;6383;50.830;7.210;2023-04-27T03:37:35;101136.94;;;11.93;48.95
12636;BME280;6383;50.830;7.210;2023-04-27T03:40:09;101144.38;;;11.88;48.42
12636;BME280;6383;50.830;7.210;2023-04-27T03:42:36;101138.41;;;11.86;48.62
12636;BME280;6383;50.830;7.210;2023-04-27T03:45:06;101133.56;;;11.83;49.14
12636;BME280;6383;50.830;7.210;2023-04-27T03:47:36;101142.03;;;11.81;49.19
12636;BME280;6383;50.830;7.210;2023-04-27T03:50:06;101134.66;;;11.82;48.63
12636;BME280;6383;50.830;7.210;2023-04-27T03:52:35;101131.41;;;11.80;48.60
12636;BME280;6383;50.830;7.210;2023-04-27T03:55:05;101136.63;;;11.76;49.06
12636;BME280;6383;50.830;7.210;2023-04-27T03:57:36;101135.59;;;11.72;49.12
12636;BME280;6383;50.830;7.210;2023-04-27T04:00:06;101135.34;;;11.69;49.25
12636;BME280;6383;50.830;7.210;2023-04-27T04:02:36;101144.63;;;11.68;49.10
12636;BME280;6383;50.830;7.210;2023-04-27T04:05:06;101148.22;;;11.63;49.23
12636;BME280;6383;50.830;7.210;2023-04-27T04:07:35;101158.31;;;11.62;49.99
12636;BME280;6383;50.830;7.210;2023-04-27T04:10:05;101158.31;;;11.62;49.39
12636;BME280;6383;50.830;7.210;2023-04-27T04:12:36;101160.00;;;11.58;49.50
12636;BME280;6383;50.830;7.210;2023-04-27T04:15:06;101163.63;;;11.54;49.25
12636;BME280;6383;50.830;7.210;2023-04-27T04:17:35;101152.78;;;11.49;50.06
12636;BME280;6383;50.830;7.210;2023-04-27T04:20:05;101161.25;;;11.47;50.09
12636;BME280;6383;50.830;7.210;2023-04-27T04:22:36;101168.63;;;11.47;49.97
12636;BME280;6383;50.830;7.210;2023-04-27T04:25:06;101166.69;;;11.47;50.23
12636;BME280;6383;50.830;7.210;2023-04-27T04:27:37;101171.88;;;11.49;49.95
12636;BME280;6383;50.830;7.210;2023-04-27T04:30:07;101168.91;;;11.45;50.00
12636;BME280;6383;50.830;7.210;2023-04-27T04:32:36;101177.97;;;11.41;50.45
12636;BME280;6383;50.830;7.210;2023-04-27T04:35:05;101179.13;;;11.35;50.68
12636;BME280;6383;50.830;7.210;2023-04-27T04:37:35;101178.06;;;11.30;51.06
12636;BME280;6383;50.830;7.210;2023-04-27T04:40:06;101178.16;;;11.25;50.60
12636;BME280;6383;50.830;7.210;2023-04-27T04:42:37;101181.16;;;11.24;50.62
12636;BME280;6383;50.830;7.210;2023-04-27T04:45:07;101181.19;;;11.19;50.70
12636;BME280;6383;50.830;7.210;2023-04-27T04:47:37;101185.03;;;11.18;50.08
12636;BME280;6383;50.830;7.210;2023-04-27T04:50:07;101184.78;;;11.14;50.73
12636;BME280;6383;50.830;7.210;2023-04-27T04:52:37;101195.47;;;11.11;50.70
12636;BME280;6383;50.830;7.210;2023-04-27T04:55:06;101192.50;;;11.07;50.87
12636;BME280;6383;50.830;7.210;2023-04-27T04:57:35;101188.44;;;11.05;50.16
12636;BME280;6383;50.830;7.210;2023-04-27T05:00:07;101194.44;;;11.02;50.17
12636;BME280;6383;50.830;7.210;2023-04-27T05:02:39;101189.28;;;11.00;50.82
12636;BME280;6383;50.830;7.210;2023-04-27T05:05:07;101196.16;;;10.98;50.55
12636;BME280;6383;50.830;7.210;2023-04-27T05:07:37;101192.09;;;10.95;50.95
12636;BME280;6383;50.830;7.210;2023-04-27T05:10:06;101195.09;;;10.93;50.36
12636;BME280;6383;50.830;7.210;2023-04-27T05:12:35;101198.91;;;10.92;50.96
12636;BME280;6383;50.830;7.210;2023-04-27T05:15:07;101191.84;;;10.91;50.82
12636;BME280;6383;50.830;7.210;2023-04-27T05:17:36;101205.97;;;10.93;51.17
12636;BME280;6383;50.830;7.210;2023-04-27T05:20:06;101216.06;;;10.93;51.53
12636;BME280;6383;50.830;7.210;2023-04-27T05:22:36;101211.97;;;10.95;50.82
12636;BME280;6383;50.830;7.210;2023-04-27T05:25:06;101206.72;;;10.99;50.50
12636;BME280;6383;50.830;7.210;2023-04-27T05:27:35;101211.31;;;11.04;50.88
12636;BME280;6383;50.830;7.210;2023-04-27T05:30:07;101208.03;;;11.07;49.94
12636;BME280;6383;50.830;7.210;2023-04-27T05:32:36;101211.81;;;11.11;50.05
12636;BME280;6383;50.830;7.210;2023-04-27T05:35:06;101205.75;;;11.14;49.83
12636;BME280;6383;50.830;7.210;2023-04-27T05:37:36;101211.16;;;11.19;49.70
12636;BME280;6383;50.830;7.210;2023-04-27T05:40:06;101211.97;;;11.19;50.06
12636;BME280;6383;50.830;7.210;2023-04-27T05:42:36;101223.13;;;11.23;50.14
12636;BME280;6383;50.830;7.210;2023-04-27T05:45:08;101226.91;;;11.27;49.90
12636;BME280;6383;50.830;7.210;2023-04-27T05:47:39;101227.94;;;11.31;49.79
12636;BME280;6383;50.830;7.210;2023-04-27T05:50:08;101222.72;;;11.35;49.40
12636;BME280;6383;50.830;7.210;2023-04-27T05:52:37;101228.69;;;11.37;49.05
12636;BME280;6383;50.830;7.210;2023-04-27T05:55:06;101228.41;;;11.38;48.92
12636;BME280;6383;50.830;7.210;2023-04-27T05:57:35;101227.53;;;11.43;49.21
12636;BME280;6383;50.830;7.210;2023-04-27T06:00:08;101223.94;;;11.47;48.40
12636;BME280;6383;50.830;7.210;2023-04-27T06:02:39;101237.81;;;11.51;48.44
12636;BME280;6383;50.830;7.210;2023-04-27T06:05:08;101240.25;;;11.52;48.76
12636;BME280;6383;50.830;7.210;2023-04-27T06:07:37;101235.59;;;11.53;49.14
12636;BME280;6383;50.830;7.210;2023-04-27T06:10:08;101238.03;;;11.54;48.37
12636;BME280;6383;50.830;7.210;2023-04-27T06:12:37;101230.41;;;11.56;48.14
12636;BME280;6383;50.830;7.210;2023-04-27T06:15:08;101232.81;;;11.58;48.35
12636;BME280;6383;50.830;7.210;2023-04-27T06:17:37;101236.06;;;11.60;48.64
12636;BME280;6383;50.830;7.210;2023-04-27T06:20:07;101237.41;;;11.62;48.89
12636;BME280;6383;50.830;7.210;2023-04-27T06:22:37;101243.38;;;11.64;49.18
12636;BME280;6383;50.830;7.210;2023-04-27T06:25:07;101247.44;;;11.67;48.70
12636;BME280;6383;50.830;7.210;2023-04-27T06:27:36;101241.94;;;11.72;49.09
12636;BME280;6383;50.830;7.210;2023-04-27T06:30:08;101245.97;;;11.75;48.99
12636;BME280;6383;50.830;7.210;2023-04-27T06:32:37;101247.84;;;11.79;48.51
12636;BME280;6383;50.830;7.210;2023-04-27T06:35:06;101242.66;;;11.83;48.63
12636;BME280;6383;50.830;7.210;2023-04-27T06:37:35;101245.28;;;11.88;48.30
12636;BME280;6383;50.830;7.210;2023-04-27T06:40:05;101244.41;;;11.92;48.45
12636;BME280;6383;50.830;7.210;2023-04-27T06:42:35;101250.63;;;11.98;48.27
12636;BME280;6383;50.830;7.210;2023-04-27T06:45:05;101247.53;;;12.05;48.26
12636;BME280;6383;50.830;7.210;2023-04-27T06:47:41;101247.19;;;12.11;48.13
12636;BME280;6383;50.830;7.210;2023-04-27T06:50:13;101239.41;;;12.18;47.67
12636;BME280;6383;50.830;7.210;2023-04-27T06:52:42;101248.94;;;12.21;46.61
12636;BME280;6383;50.830;7.210;2023-04-27T06:55:11;101243.19;;;12.22;46.84
12636;BME280;6383;50.830;7.210;2023-04-27T06:57:40;101245.63;;;12.24;45.98
12636;BME280;6383;50.830;7.210;2023-04-27T07:00:11;101249.41;;;12.28;46.23
12636;BME280;6383;50.830;7.210;2023-04-27T07:02:42;101238.91;;;12.35;46.12
12636;BME280;6383;50.830;7.210;2023-04-27T07:05:11;101242.91;;;12.43;47.07
12636;BME280;6383;50.830;7.210;2023-04-27T07:07:40;101237.06;;;12.49;46.27
12636;BME280;6383;50.830;7.210;2023-04-27T07:10:09;101242.16;;;12.56;46.43
12636;BME280;6383;50.830;7.210;2023-04-27T07:12:42;101236.00;;;12.64;46.59
12636;BME280;6383;50.830;7.210;2023-04-27T07:15:11;101228.25;;;12.71;45.83
12636;BME280;6383;50.830;7.210;2023-04-27T07:17:42;101234.13;;;12.78;45.08
12636;BME280;6383;50.830;7.210;2023-04-27T07:20:11;101227.50;;;12.84;44.87
12636;BME280;6383;50.830;7.210;2023-04-27T07:22:41;101237.53;;;12.89;44.24
12636;BME280;6383;50.830;7.210;2023-04-27T07:25:10;101235.50;;;12.94;44.60
12636;BME280;6383;50.830;7.210;2023-04-27T07:27:39;101230.19;;;13.03;46.07
12636;BME280;6383;50.830;7.210;2023-04-27T07:30:09;101231.38;;;13.11;43.98
12636;BME280;6383;50.830;7.210;2023-04-27T07:32:42;101222.03;;;13.17;42.67
12636;BME280;6383;50.830;7.210;2023-04-27T07:35:11;101235.59;;;13.22;42.81
12636;BME280;6383;50.830;7.210;2023-04-27T07:37:41;101231.66;;;13.28;42.15
12636;BME280;6383;50.830;7.210;2023-04-27T07:40:13;101220.13;;;13.31;41.13
12636;BME280;6383;50.830;7.210;2023-04-27T07:42:43;101224.69;;;13.35;41.73
12636;BME280;6383;50.830;7.210;2023-04-27T07:45:13;101231.38;;;13.43;41.23
12636;BME280;6383;50.830;7.210;2023-04-27T07:47:43;101221.63;;;13.51;41.64
12636;BME280;6383;50.830;7.210;2023-04-27T07:50:13;101221.75;;;13.59;42.59
12636;BME280;6383;50.830;7.210;2023-04-27T07:52:43;101230.69;;;13.65;41.42
12636;BME280;6383;50.830;7.210;2023-04-27T07:55:12;101222.34;;;13.70;41.61
12636;BME280;6383;50.830;7.210;2023-04-27T07:57:41;101214.56;;;13.77;42.69
12636;BME280;6383;50.830;7.210;2023-04-27T08:00:11;101218.78;;;13.83;42.15
12636;BME280;6383;50.830;7.210;2023-04-27T08:02:40;101215.34;;;13.91;42.65
12636;BME280;6383;50.830;7.210;2023-04-27T08:05:11;101218.28;;;13.95;42.03
12636;BME280;6383;50.830;7.210;2023-04-27T08:07:40;101215.13;;;14.01;41.73
12636;BME280;6383;50.830;7.210;2023-04-27T08:10:09;101218.25;;;14.08;42.92
12636;BME280;6383;50.830;7.210;2023-04-27T08:12:38;101210.41;;;14.16;41.99
12636;BME280;6383;50.830;7.210;2023-04-27T08:15:09;101213.25;;;14.24;41.95
12636;BME280;6383;50.830;7.210;2023-04-27T08:17:38;101209.56;;;14.29;41.58
12636;BME280;6383;50.830;7.210;2023-04-27T08:20:11;101205.91;;;14.33;41.00
12636;BME280;6383;50.830;7.210;2023-04-27T08:22:40;101200.63;;;14.37;40.69
12636;BME280;6383;50.830;7.210;2023-04-27T08:25:09;101198.28;;;14.44;39.67
12636;BME280;6383;50.830;7.210;2023-04-27T08:27:39;101202.31;;;14.46;39.38
12636;BME280;6383;50.830;7.210;2023-04-27T08:30:08;101203.34;;;14.51;39.29
12636;BME280;6383;50.830;7.210;2023-04-27T08:32:38;101206.75;;;14.56;39.47
12636;BME280;6383;50.830;7.210;2023-04-27T08:35:08;101200.03;;;14.62;37.40
12636;BME280;6383;50.830;7.210;2023-04-27T08:37:39;101195.56;;;14.66;37.28
12636;BME280;6383;50.830;7.210;2023-04-27T08:40:14;101189.63;;;14.73;39.21
12636;BME280;6383;50.830;7.210;2023-04-27T08:42:54;101194.66;;;14.79;39.61
12636;BME280;6383;50.830;7.210;2023-04-27T08:45:24;101185.31;;;14.80;39.03
12636;BME280;6383;50.830;7.210;2023-04-27T08:47:54;101187.91;;;14.86;38.51
12636;BME280;6383;50.830;7.210;2023-04-27T08:50:30;101193.28;;;14.91;38.90
12636;BME280;6383;50.830;7.210;2023-04-27T08:52:59;101190.09;;;14.97;38.51
12636;BME280;6383;50.830;7.210;2023-04-27T08:55:28;101186.09;;;15.03;37.74
12636;BME280;6383;50.830;7.210;2023-04-27T08:57:57;101188.38;;;15.10;36.65
12636;BME280;6383;50.830;7.210;2023-04-27T09:00:37;101190.81;;;15.11;36.61
12636;BME280;6383;50.830;7.210;2023-04-27T09:03:08;101195.31;;;15.16;36.69
12636;BME280;6383;50.830;7.210;2023-04-27T09:05:46;101186.97;;;15.21;38.31
12636;BME280;6383;50.830;7.210;2023-04-27T09:08:17;101188.13;;;15.29;37.79
12636;BME280;6383;50.830;7.210;2023-04-27T09:10:47;101186.88;;;15.35;38.00
12636;BME280;6383;50.830;7.210;2023-04-27T09:13:17;101177.50;;;15.36;37.94
12636;BME280;6383;50.830;7.210;2023-04-27T09:15:49;101185.59;;;15.41;37.20
12636;BME280;6383;50.830;7.210;2023-04-27T09:18:19;101174.97;;;15.48;37.88
12636;BME280;6383;50.830;7.210;2023-04-27T09:20:50;101176.44;;;15.54;37.99
12636;BME280;6383;50.830;7.210;2023-04-27T09:23:28;101165.03;;;15.61;37.25
12636;BME280;6383;50.830;7.210;2023-04-27T09:25:59;101168.44;;;15.66;36.00
12636;BME280;6383;50.830;7.210;2023-04-27T09:28:29;101162.94;;;15.75;36.53
12636;BME280;6383;50.830;7.210;2023-04-27T09:30:59;101162.19;;;15.83;36.31
12636;BME280;6383;50.830;7.210;2023-04-27T09:33:29;101162.50;;;15.90;36.79
12636;BME280;6383;50.830;7.210;2023-04-27T09:35:59;101160.91;;;15.98;36.42
12636;BME280;6383;50.830;7.210;2023-04-27T09:38:30;101164.63;;;16.02;34.48
12636;BME280;6383;50.830;7.210;2023-04-27T09:40:58;101165.88;;;16.04;35.34
12636;BME280;6383;50.830;7.210;2023-04-27T09:43:28;101160.88;;;16.06;35.54
12636;BME280;6383;50.830;7.210;2023-04-27T09:45:58;101158.81;;;16.12;34.90
12636;BME280;6383;50.830;7.210;2023-04-27T09:48:28;101160.25;;;16.18;34.99
12636;BME280;6383;50.830;7.210;2023-04-27T09:50:57;101155.41;;;16.23;35.61
12636;BME280;6383;50.830;7.210;2023-04-27T09:53:33;101141.50;;;16.29;34.84
12636;BME280;6383;50.830;7.210;2023-04-27T09:56:15;101146.00;;;16.33;34.42
12636;BME280;6383;50.830;7.210;2023-04-27T09:59:01;101150.88;;;16.36;35.36
12636;BME280;6383;50.830;7.210;2023-04-27T10:01:38;101142.31;;;16.38;34.31
12636;BME280;6383;50.830;7.210;2023-04-27T10:04:19;101140.84;;;16.40;35.13
12636;BME280;6383;50.830;7.210;2023-04-27T10:06:56;101142.47;;;16.41;35.04
12636;BME280;6383;50.830;7.210;2023-04-27T10:09:34;101136.00;;;16.46;34.82
12636;BME280;6383;50.830;7.210;2023-04-27T10:12:17;101135.50;;;16.52;35.35
12636;BME280;6383;50.830;7.210;2023-04-27T10:14:48;101132.25;;;16.59;36.02
12636;BME280;6383;50.830;7.210;2023-04-27T10:17:18;101126.91;;;16.63;35.60
12636;BME280;6383;50.830;7.210;2023-04-27T10:19:57;101127.88;;;16.67;35.96
12636;BME280;6383;50.830;7.210;2023-04-27T10:22:37;101130.47;;;16.72;35.90
12636;BME280;6383;50.830;7.210;2023-04-27T10:25:19;101121.72;;;16.78;36.33
12636;BME280;6383;50.830;7.210;2023-04-27T10:27:49;101119.59;;;16.84;35.22
12636;BME280;6383;50.830;7.210;2023-04-27T10:30:21;101114.25;;;16.87;34.77
12636;BME280;6383;50.830;7.210;2023-04-27T10:32:52;101115.88;;;16.88;34.60
12636;BME280;6383;50.830;7.210;2023-04-27T10:35:30;101112.78;;;16.90;36.03
12636;BME280;6383;50.830;7.210;2023-04-27T10:38:07;101117.91;;;17.00;35.36
12636;BME280;6383;50.830;7.210;2023-04-27T10:40:38;101107.06;;;17.04;34.41
12636;BME280;6383;50.830;7.210;2023-04-27T10:43:08;101102.38;;;17.04;34.44
12636;BME280;6383;50.830;7.210;2023-04-27T10:45:38;101107.19;;;17.07;34.23
12636;BME280;6383;50.830;7.210;2023-04-27T10:48:08;101098.63;;;17.09;33.90
12636;BME280;6383;50.830;7.210;2023-04-27T10:50:40;101093.59;;;17.11;34.59
12636;BME280;6383;50.830;7.210;2023-04-27T10:53:11;101095.50;;;17.19;34.19
12636;BME280;6383;50.830;7.210;2023-04-27T10:55:42;101088.81;;;17.28;34.00
12636;BME280;6383;50.830;7.210;2023-04-27T10:58:11;101097.47;;;17.39;34.57
12636;BME280;6383;50.830;7.210;2023-04-27T11:00:42;101089.19;;;17.48;34.44
12636;BME280;6383;50.830;7.210;2023-04-27T11:03:13;101091.28;;;17.51;33.53
12636;BME280;6383;50.830;7.210;2023-04-27T11:05:45;101084.59;;;17.52;32.98
12636;BME280;6383;50.830;7.210;2023-04-27T11:08:15;101081.19;;;17.55;33.77
12636;BME280;6383;50.830;7.210;2023-04-27T11:10:48;101091.34;;;17.63;34.21
12636;BME280;6383;50.830;7.210;2023-04-27T11:13:18;101083.72;;;17.69;33.29
12636;BME280;6383;50.830;7.210;2023-04-27T11:15:49;101079.50;;;17.71;32.94
12636;BME280;6383;50.830;7.210;2023-04-27T11:18:20;101081.56;;;17.74;33.58
12636;BME280;6383;50.830;7.210;2023-04-27T11:20:51;101078.97;;;17.78;33.91
12636;BME280;6383;50.830;7.210;2023-04-27T11:23:24;101077.50;;;17.80;33.63
12636;BME280;6383;50.830;7.210;2023-04-27T11:25:55;101079.53;;;17.83;33.00
12636;BME280;6383;50.830;7.210;2023-04-27T11:28:24;101077.75;;;17.87;33.55
12636;BME280;6383;50.830;7.210;2023-04-27T11:30:57;101062.16;;;17.91;33.83
12636;BME280;6383;50.830;7.210;2023-04-27T11:33:27;101063.53;;;17.97;34.15
12636;BME280;6383;50.830;7.210;2023-04-27T11:35:56;101063.44;;;17.94;32.49
12636;BME280;6383;50.830;7.210;2023-04-27T11:38:31;101060.53;;;17.90;33.07
12636;BME280;6383;50.830;7.210;2023-04-27T11:41:03;101064.25;;;17.94;33.66
12636;BME280;6383;50.830;7.210;2023-04-27T11:43:33;101058.38;;;17.96;33.15
12636;BME280;6383;50.830;7.210;2023-04-27T11:46:03;101057.22;;;17.97;32.31
12636;BME280;6383;50.830;7.210;2023-04-27T11:48:35;101053.34;;;17.98;33.34
12636;BME280;6383;50.830;7.210;2023-04-27T11:51:04;101049.91;;;18.01;32.57
12636;BME280;6383;50.830;7.210;2023-04-27T11:53:35;101051.66;;;18.06;33.38
12636;BME280;6383;50.830;7.210;2023-04-27T11:56:09;101049.38;;;18.08;32.57
12636;BME280;6383;50.830;7.210;2023-04-27T11:58:38;101047.53;;;18.12;32.11
12636;BME280;6383;50.830;7.210;2023-04-27T12:01:08;101037.31;;;18.12;32.49
12636;BME280;6383;50.830;7.210;2023-04-27T12:03:39;101035.16;;;18.18;33.62
12636;BME280;6383;50.830;7.210;2023-04-27T12:06:08;101029.91;;;18.25;32.78
12636;BME280;6383;50.830;7.210;2023-04-27T12:08:37;101031.09;;;18.36;33.17
12636;BME280;6383;50.830;7.210;2023-04-27T12:11:07;101035.22;;;18.42;33.37
12636;BME280;6383;50.830;7.210;2023-04-27T12:13:36;101024.91;;;18.51;32.06
12636;BME280;6383;50.830;7.210;2023-04-27T12:16:06;101025.03;;;18.55;31.42
12636;BME280;6383;50.830;7.210;2023-04-27T12:18:35;101011.38;;;18.58;32.32
12636;BME280;6383;50.830;7.210;2023-04-27T12:21:04;101021.72;;;18.61;31.25
12636;BME280;6383;50.830;7.210;2023-04-27T12:23:35;101024.59;;;18.65;31.57
12636;BME280;6383;50.830;7.210;2023-04-27T12:26:04;101027.03;;;18.66;31.14
12636;BME280;6383;50.830;7.210;2023-04-27T12:28:35;101033.00;;;18.69;31.06
12636;BME280;6383;50.830;7.210;2023-04-27T12:31:05;101023.59;;;18.70;30.96
12636;BME280;6383;50.830;7.210;2023-04-27T12:33:35;101020.13;;;18.73;31.16
12636;BME280;6383;50.830;7.210;2023-04-27T12:36:05;101016.34;;;18.77;31.19
12636;BME280;6383;50.830;7.210;2023-04-27T12:38:39;101012.78;;;18.77;31.50
12636;BME280;6383;50.830;7.210;2023-04-27T12:41:09;101016.81;;;18.79;31.46
12636;BME280;6383;50.830;7.210;2023-04-27T12:43:40;101019.22;;;18.81;30.34
12636;BME280;6383;50.830;7.210;2023-04-27T12:46:10;101017.03;;;18.86;30.09
12636;BME280;6383;50.830;7.210;2023-04-27T12:48:39;101015.66;;;18.92;29.55
12636;BME280;6383;50.830;7.210;2023-04-27T12:51:08;101015.31;;;18.94;29.27
12636;BME280;6383;50.830;7.210;2023-04-27T12:53:37;101011.53;;;18.98;29.41
12636;BME280;6383;50.830;7.210;2023-04-27T12:56:06;101005.63;;;19.00;30.77
12636;BME280;6383;50.830;7.210;2023-04-27T12:58:36;100999.53;;;19.07;30.06
12636;BME280;6383;50.830;7.210;2023-04-27T13:01:06;101009.88;;;19.10;30.55
12636;BME280;6383;50.830;7.210;2023-04-27T13:03:41;101003.69;;;19.13;29.64
12636;BME280;6383;50.830;7.210;2023-04-27T13:06:10;101006.09;;;19.14;30.17
12636;BME280;6383;50.830;7.210;2023-04-27T13:08:41;101000.22;;;19.16;29.39
12636;BME280;6383;50.830;7.210;2023-04-27T13:11:11;101000.59;;;19.14;28.76
12636;BME280;6383;50.830;7.210;2023-04-27T13:13:40;101006.19;;;19.18;29.48
12636;BME280;6383;50.830;7.210;2023-04-27T13:16:10;101004.22;;;19.18;28.95
12636;BME280;6383;50.830;7.210;2023-04-27T13:18:39;101002.06;;;19.24;29.68
12636;BME280;6383;50.830;7.210;2023-04-27T13:21:14;100998.47;;;19.23;28.44